Time;durP1;ratioP1;P1;durP2;ratioP2;P2;SDS_P1;SDS_P2;PMS_P1;PMS_P2;Temp;Humidity;BMP_temperature;BMP_pressure;BME280_temperature;BME280_humidity;BME280_pressure;Samples;Min_cycle;Max_cycle;Signal;HPM_P1;HPM_P2
2022/12/12 00:01:09;;;;;;;58.15;25.35;;;-0.70;99.90;;;;;;6122499;23;20079;-68
2022/12/12 00:03:35;;;;;;;51.40;23.20;;;-0.60;99.90;;;;;;6123682;23;20432;-66
2022/12/12 00:06:03;;;;;;;51.95;23.67;;;-0.60;99.90;;;;;;6123222;23;20021;-65
2022/12/12 00:08:29;;;;;;;53.20;22.58;;;-0.50;99.90;;;;;;6149352;23;20087;-65
2022/12/12 00:10:55;;;;;;;52.38;23.90;;;-0.50;99.90;;;;;;6147486;23;20022;-65
2022/12/12 00:13:21;;;;;;;50.10;22.98;;;-0.50;99.90;;;;;;6149080;23;20049;-65
2022/12/12 00:15:46;;;;;;;47.47;21.63;;;-0.50;99.90;;;;;;6149143;23;20014;-65
2022/12/12 00:18:12;;;;;;;45.28;21.63;;;-0.40;99.90;;;;;;6148589;23;20101;-65
2022/12/12 00:20:38;;;;;;;47.78;22.55;;;-0.50;99.90;;;;;;6124044;23;20529;-66
2022/12/12 00:23:04;;;;;;;44.97;22.30;;;-0.50;99.90;;;;;;6148425;23;20028;-66
2022/12/12 00:25:29;;;;;;;43.10;21.83;;;-0.40;99.90;;;;;;6123746;23;20095;-66
2022/12/12 00:27:55;;;;;;;48.63;22.55;;;-0.40;99.90;;;;;;6124022;23;20028;-66
2022/12/12 00:30:21;;;;;;;51.08;22.05;;;-0.40;99.90;;;;;;6120828;23;20033;-66
2022/12/12 00:32:46;;;;;;;49.55;22.77;;;-0.40;99.90;;;;;;6149327;23;20036;-66
2022/12/12 00:35:15;;;;;;;44.80;21.00;;;-0.50;99.90;;;;;;6148311;23;20465;-66
2022/12/12 00:37:41;;;;;;;40.00;20.40;;;-0.50;99.90;;;;;;6149004;23;20173;-66
2022/12/12 00:40:07;;;;;;;44.35;20.13;;;-0.50;99.90;;;;;;6148918;23;20394;-67
2022/12/12 00:42:32;;;;;;;44.30;21.20;;;-0.40;99.90;;;;;;6149703;23;20032;-66
2022/12/12 00:44:58;;;;;;;51.15;21.40;;;-0.60;99.90;;;;;;6149452;23;20009;-66
2022/12/12 00:47:24;;;;;;;46.55;21.88;;;-0.60;99.90;;;;;;6123395;23;20024;-65
2022/12/12 00:49:49;;;;;;;46.20;22.27;;;-0.50;99.90;;;;;;6149714;23;20021;-66
2022/12/12 00:52:15;;;;;;;47.30;21.90;;;-0.60;99.90;;;;;;6122852;23;20028;-66
2022/12/12 00:54:41;;;;;;;48.08;22.38;;;-0.50;99.90;;;;;;6148904;23;20101;-65
2022/12/12 00:57:06;;;;;;;49.00;22.70;;;-0.40;99.90;;;;;;6149006;23;20418;-66
2022/12/12 00:59:32;;;;;;;50.13;22.67;;;-0.40;99.90;;;;;;6123593;23;20330;-66
2022/12/12 01:01:57;;;;;;;51.97;23.65;;;-0.40;99.90;;;;;;6123185;23;20184;-65
2022/12/12 01:04:23;;;;;;;47.13;22.73;;;-0.40;99.90;;;;;;6149022;23;20017;-66
2022/12/12 01:06:49;;;;;;;49.40;21.95;;;-0.40;99.90;;;;;;6149235;23;20032;-66
2022/12/12 01:09:14;;;;;;;49.53;23.20;;;-0.40;99.90;;;;;;6122465;23;20017;-65
2022/12/12 01:11:40;;;;;;;50.83;22.77;;;-0.30;99.90;;;;;;6124434;23;20349;-67
2022/12/12 01:14:06;;;;;;;48.42;23.00;;;-0.30;99.90;;;;;;6122624;23;20454;-65
2022/12/12 01:16:32;;;;;;;50.80;21.48;;;-0.30;99.90;;;;;;6148652;23;20029;-65
2022/12/12 01:18:58;;;;;;;45.97;22.55;;;-0.30;99.90;;;;;;6149596;23;20029;-66
2022/12/12 01:21:24;;;;;;;53.83;23.85;;;-0.20;99.90;;;;;;6122498;23;20053;-66
2022/12/12 01:23:50;;;;;;;49.30;21.42;;;-0.30;99.90;;;;;;6148563;23;20017;-66
2022/12/12 01:26:19;;;;;;;48.08;21.80;;;-0.20;99.90;;;;;;6122143;23;20084;-66
2022/12/12 01:28:45;;;;;;;48.90;23.13;;;-0.30;99.90;;;;;;6122334;23;20021;-66
2022/12/12 01:31:11;;;;;;;50.63;23.05;;;-0.30;99.90;;;;;;6120687;23;20017;-67
2022/12/12 01:33:37;;;;;;;46.22;22.33;;;-0.20;99.90;;;;;;6148553;23;20098;-66
2022/12/12 01:36:04;;;;;;;49.25;23.35;;;-0.30;99.90;;;;;;6149020;23;20053;-67
2022/12/12 01:38:30;;;;;;;50.03;22.92;;;-0.30;99.90;;;;;;6148547;23;20366;-66
2022/12/12 01:40:55;;;;;;;49.30;21.75;;;-0.20;99.90;;;;;;6149423;23;20072;-66
2022/12/12 01:43:23;;;;;;;48.65;22.98;;;-0.20;99.90;;;;;;6149018;23;20021;-67
2022/12/12 01:46:01;;;;;;;52.15;21.92;;;-0.30;99.90;;;;;;6148554;23;20469;-68
2022/12/12 01:48:45;;;;;;;52.72;23.83;;;-0.10;99.90;;;;;;6148865;23;20025;-65
2022/12/12 01:51:18;;;;;;;50.30;22.92;;;-0.20;99.90;;;;;;6122191;23;20014;-66
2022/12/12 01:53:46;;;;;;;56.08;24.85;;;-0.20;99.90;;;;;;6122908;23;20109;-65
2022/12/12 01:56:15;;;;;;;51.30;23.02;;;-0.10;99.90;;;;;;6121967;23;20018;-66
2022/12/12 01:58:46;;;;;;;52.42;22.63;;;0.00;99.90;;;;;;6121852;23;20104;-66
2022/12/12 02:01:13;;;;;;;54.55;24.10;;;0.00;99.90;;;;;;6122664;23;20013;-66
2022/12/12 02:03:42;;;;;;;59.17;24.83;;;0.00;99.90;;;;;;6149330;23;20022;-66
2022/12/12 02:06:16;;;;;;;52.45;24.55;;;0.00;99.90;;;;;;6148214;23;20080;-66
2022/12/12 02:08:45;;;;;;;53.03;24.35;;;0.00;99.90;;;;;;6122565;23;20013;-66
2022/12/12 02:11:11;;;;;;;52.13;23.75;;;0.10;99.90;;;;;;6123017;23;20528;-66
2022/12/12 02:13:37;;;;;;;54.35;24.38;;;0.00;99.90;;;;;;6121900;23;20097;-66
2022/12/12 02:16:21;;;;;;;57.67;26.42;;;0.00;99.90;;;;;;6122650;23;20028;-66
2022/12/12 02:19:21;;;;;;;50.65;23.52;;;0.10;99.90;;;;;;6122238;23;20030;-66
2022/12/12 02:21:53;;;;;;;55.35;23.95;;;0.10;99.90;;;;;;6122564;23;20120;-66
2022/12/12 02:24:36;;;;;;;50.13;23.40;;;0.20;99.90;;;;;;6148160;23;20593;-65
2022/12/12 02:27:11;;;;;;;;;;;0.10;99.90;;;;;;6148500;23;20321;-66
2022/12/12 02:30:06;;;;;;;50.85;22.20;;;0.20;99.90;;;;;;6120871;23;19916;-66
2022/12/12 02:32:56;;;;;;;56.67;26.27;;;0.30;99.90;;;;;;6117361;23;20082;-66
2022/12/12 02:35:31;;;;;;;54.40;24.45;;;0.30;99.90;;;;;;6121915;23;20021;-66
2022/12/12 02:38:12;;;;;;;55.35;24.13;;;0.10;99.90;;;;;;6147592;23;20013;-66
2022/12/12 02:40:58;;;;;;;53.75;24.35;;;0.10;99.90;;;;;;6117217;23;20026;-66
2022/12/12 02:43:28;;;;;;;51.53;24.38;;;0.30;99.90;;;;;;6118405;23;20028;-67
2022/12/12 02:45:58;;;;;;;56.67;24.88;;;0.30;99.90;;;;;;6119999;23;20021;-66
2022/12/12 02:48:31;;;;;;;55.03;24.48;;;0.20;99.90;;;;;;6117293;23;20014;-66
2022/12/12 02:50:58;;;;;;;;;;;0.20;99.90;;;;;;6118670;23;20052;-67
2022/12/12 02:53:23;;;;;;;57.03;24.58;;;0.10;99.90;;;;;;6117930;23;19925;-66
2022/12/12 02:56:00;;;;;;;53.20;22.85;;;0.30;99.90;;;;;;6117939;23;20027;-67
2022/12/12 02:58:25;;;;;;;49.53;24.55;;;0.30;99.90;;;;;;6117112;23;20044;-67
2022/12/12 03:01:11;;;;;;;51.88;24.30;;;0.10;99.90;;;;;;6119785;23;20469;-66
2022/12/12 03:10:12;;;;;;;54.08;24.05;;;0.30;99.90;;;;;;6118978;23;20017;-67
2022/12/12 03:12:42;;;;;;;52.85;23.10;;;0.20;99.90;;;;;;6120277;23;20145;-67
2022/12/12 03:15:16;;;;;;;55.75;25.08;;;0.20;99.90;;;;;;6118665;23;20018;-67
2022/12/12 03:17:53;;;;;;;53.83;24.45;;;0.30;99.90;;;;;;6119611;23;20568;-67
2022/12/12 03:20:36;;;;;;;51.58;25.02;;;0.30;99.90;;;;;;6116932;23;20449;-67
2022/12/12 03:23:15;;;;;;;52.20;24.50;;;0.10;99.90;;;;;;6116926;23;20014;-68
2022/12/12 03:26:05;;;;;;;54.42;24.33;;;0.10;99.90;;;;;;6119423;23;20093;-67
2022/12/12 03:28:44;;;;;;;50.40;23.40;;;0.10;99.90;;;;;;6118553;23;20026;-67
2022/12/12 03:31:12;;;;;;;51.80;24.40;;;0.10;99.90;;;;;;6116324;23;20018;-67
2022/12/12 03:34:17;;;;;;;55.30;23.33;;;0.20;99.90;;;;;;6119653;23;20022;-66
2022/12/12 03:36:54;;;;;;;49.78;22.45;;;0.10;99.90;;;;;;6117241;23;20025;-66
2022/12/12 03:39:28;;;;;;;54.53;23.25;;;0.20;99.90;;;;;;6118269;23;20398;-66
2022/12/12 03:42:05;;;;;;;53.00;24.30;;;0.00;99.90;;;;;;6119734;23;20026;-66
2022/12/12 03:44:36;;;;;;;53.55;23.85;;;0.00;99.90;;;;;;6118193;23;20030;-66
2022/12/12 03:47:49;;;;;;;52.65;23.77;;;0.00;99.90;;;;;;6118143;23;20010;-68
2022/12/12 03:50:42;;;;;;;53.22;24.90;;;-0.10;99.90;;;;;;6116326;23;20019;-66
2022/12/12 03:53:32;;;;;;;49.85;22.83;;;-0.20;99.90;;;;;;6118571;23;20022;-66
2022/12/12 03:56:17;;;;;;;52.83;23.80;;;-0.20;99.90;;;;;;6119358;23;20736;-67
2022/12/12 03:58:50;;;;;;;51.75;23.95;;;-0.20;99.90;;;;;;6117788;23;20030;-66
2022/12/12 04:01:19;;;;;;;49.97;23.15;;;-0.20;99.90;;;;;;6120242;23;20010;-66
2022/12/12 04:04:16;;;;;;;49.60;23.67;;;-0.20;99.90;;;;;;6120287;23;20101;-67
2022/12/12 04:06:55;;;;;;;51.03;22.65;;;-0.20;99.90;;;;;;6118569;23;20101;-66
2022/12/12 04:15:23;;;;;;;45.30;23.00;;;-0.30;99.90;;;;;;6118431;23;20033;-67
2022/12/12 04:18:06;;;;;;;44.70;22.17;;;-0.20;99.90;;;;;;6120739;23;20026;-66
2022/12/12 04:23:52;;;;;;;49.63;23.33;;;-0.30;99.90;;;;;;6120083;23;19921;-66
2022/12/12 04:26:39;;;;;;;45.20;21.52;;;-0.30;99.90;;;;;;6109487;23;20025;-66
2022/12/12 04:29:08;;;;;;;49.03;21.27;;;-0.40;99.90;;;;;;6117647;23;20058;-65
2022/12/12 04:31:44;;;;;;;49.58;22.17;;;-0.30;99.90;;;;;;6119042;23;20112;-65
2022/12/12 04:34:16;;;;;;;62.38;28.75;;;-0.30;99.90;;;;;;6118640;23;20049;-65
2022/12/12 04:36:44;;;;;;;66.50;29.95;;;-0.30;99.90;;;;;;6120466;23;20022;-66
2022/12/12 04:39:12;;;;;;;55.47;25.48;;;-0.30;99.90;;;;;;6119365;23;20104;-66
2022/12/12 04:41:41;;;;;;;46.47;23.80;;;-0.40;99.90;;;;;;6147222;23;20366;-66
2022/12/12 04:44:09;;;;;;;48.78;24.80;;;-0.30;99.90;;;;;;6123405;23;20054;-68
2022/12/12 04:46:37;;;;;;;47.58;25.90;;;-0.30;99.90;;;;;;6149719;23;20109;-66
2022/12/12 04:49:11;;;;;;;45.15;24.00;;;-0.20;99.90;;;;;;6123159;23;20490;-65
2022/12/12 04:51:42;;;;;;;44.85;23.05;;;-0.30;99.90;;;;;;6149673;23;20074;-66
2022/12/12 04:54:25;;;;;;;42.97;21.83;;;-0.20;99.90;;;;;;6121852;23;20357;-66
2022/12/12 04:56:55;;;;;;;40.70;20.77;;;-0.20;99.90;;;;;;6149405;23;20064;-65
2022/12/12 04:59:21;;;;;;;40.83;20.88;;;-0.20;99.90;;;;;;6148670;23;20037;-66
2022/12/12 05:01:50;;;;;;;40.47;20.48;;;-0.10;99.90;;;;;;6123394;23;20048;-66
2022/12/12 05:04:37;;;;;;;42.70;21.23;;;-0.20;99.90;;;;;;6122742;23;20056;-66
2022/12/12 05:07:11;;;;;;;39.10;19.48;;;-0.20;99.90;;;;;;6148632;23;20018;-65
2022/12/12 05:09:36;;;;;;;41.55;21.73;;;-0.10;99.90;;;;;;6122139;23;20096;-66
2022/12/12 05:12:02;;;;;;;39.05;19.50;;;-0.10;99.90;;;;;;6122703;23;20099;-66
2022/12/12 05:14:30;;;;;;;38.10;20.73;;;-0.20;99.90;;;;;;6124181;23;20020;-66
2022/12/12 05:17:02;;;;;;;38.63;19.02;;;-0.20;99.90;;;;;;6122840;23;20048;-66
2022/12/12 05:19:27;;;;;;;40.47;20.30;;;-0.20;99.90;;;;;;6148462;23;20029;-66
2022/12/12 05:21:53;;;;;;;40.50;20.05;;;-0.20;99.90;;;;;;6122624;23;20013;-66
2022/12/12 05:24:19;;;;;;;43.60;20.27;;;-0.10;99.90;;;;;;6121543;23;20021;-66
2022/12/12 05:26:44;;;;;;;37.90;18.30;;;-0.20;99.90;;;;;;6123300;23;20119;-66
2022/12/12 05:29:10;;;;;;;35.42;17.88;;;-0.10;99.90;;;;;;6147211;23;20139;-67
2022/12/12 05:31:36;;;;;;;39.90;20.45;;;-0.10;99.90;;;;;;6122687;23;20032;-65
2022/12/12 05:34:03;;;;;;;35.17;18.17;;;-0.20;99.90;;;;;;6122652;23;20335;-66
2022/12/12 05:36:28;;;;;;;35.15;18.58;;;-0.20;99.90;;;;;;6122698;23;20505;-65
2022/12/12 05:38:54;;;;;;;37.17;18.10;;;-0.10;99.90;;;;;;6122239;23;20026;-66
2022/12/12 05:41:20;;;;;;;38.70;19.73;;;-0.10;99.90;;;;;;6148583;23;20088;-67
2022/12/12 05:43:46;;;;;;;33.50;18.67;;;0.00;99.90;;;;;;6122285;23;20029;-66
2022/12/12 05:46:12;;;;;;;33.75;17.63;;;0.00;99.90;;;;;;6149085;23;20063;-68
2022/12/12 05:48:38;;;;;;;33.03;17.20;;;0.00;99.90;;;;;;6147929;23;20040;-68
2022/12/12 05:51:04;;;;;;;33.05;16.73;;;0.00;99.90;;;;;;6121041;23;20021;-68
2022/12/12 05:53:30;;;;;;;34.63;18.30;;;-0.10;99.90;;;;;;6148407;23;20029;-67
2022/12/12 05:55:56;;;;;;;29.98;15.85;;;0.00;99.90;;;;;;6148231;23;20564;-67
2022/12/12 05:58:22;;;;;;;33.75;17.85;;;0.00;99.90;;;;;;6147557;23;20041;-67
2022/12/12 06:00:49;;;;;;;32.95;16.58;;;0.00;99.90;;;;;;6121584;23;20021;-67
2022/12/12 06:03:15;;;;;;;33.90;18.00;;;0.00;99.90;;;;;;6121487;23;20017;-66
2022/12/12 06:05:41;;;;;;;34.60;18.63;;;0.00;99.90;;;;;;6147661;23;20085;-67
2022/12/12 06:08:07;;;;;;;29.85;16.77;;;0.00;99.90;;;;;;6122241;23;20044;-68
2022/12/12 06:10:33;;;;;;;31.88;17.10;;;0.00;99.90;;;;;;6149497;23;20080;-67
2022/12/12 06:12:58;;;;;;;31.85;16.48;;;0.10;99.90;;;;;;6149388;23;20019;-68
2022/12/12 06:15:24;;;;;;;32.85;16.52;;;0.10;99.90;;;;;;6148043;23;20347;-66
2022/12/12 06:17:52;;;;;;;35.13;18.10;;;0.00;99.90;;;;;;6123209;23;20040;-68
2022/12/12 06:20:19;;;;;;;30.27;16.77;;;0.10;99.90;;;;;;6122339;23;20029;-69
2022/12/12 06:22:44;;;;;;;29.17;16.13;;;0.00;99.90;;;;;;6122963;23;20505;-68
2022/12/12 06:25:11;;;;;;;32.63;17.30;;;0.10;99.90;;;;;;6148362;23;20413;-68
2022/12/12 06:27:37;;;;;;;30.13;16.85;;;0.00;99.90;;;;;;6123391;23;20017;-68
2022/12/12 06:30:04;;;;;;;30.10;16.70;;;0.00;99.90;;;;;;6148301;23;20014;-67
2022/12/12 06:32:30;;;;;;;30.90;16.90;;;0.00;99.90;;;;;;6147819;23;20037;-68
2022/12/12 06:34:55;;;;;;;33.80;17.75;;;0.10;99.90;;;;;;6119951;23;20032;-71
2022/12/12 06:37:22;;;;;;;32.83;17.80;;;0.10;99.90;;;;;;6120884;23;20028;-72
2022/12/12 06:39:47;;;;;;;33.25;17.88;;;0.00;99.90;;;;;;6147247;23;20024;-72
2022/12/12 06:42:13;;;;;;;29.27;15.95;;;0.00;99.90;;;;;;6122205;23;20050;-71
2022/12/12 06:44:39;;;;;;;31.48;16.70;;;0.10;99.90;;;;;;6147111;23;20714;-71
2022/12/12 06:47:04;;;;;;;29.35;15.73;;;0.00;99.90;;;;;;6121502;23;20029;-71
2022/12/12 06:49:30;;;;;;;32.55;16.80;;;0.10;99.90;;;;;;6148242;23;20112;-71
2022/12/12 06:51:55;;;;;;;29.77;16.15;;;0.00;99.90;;;;;;6148434;23;20021;-71
2022/12/12 06:54:22;;;;;;;30.70;15.25;;;0.10;99.90;;;;;;6145424;23;20096;-72
2022/12/12 06:56:48;;;;;;;27.50;15.85;;;0.10;99.90;;;;;;6121613;23;20033;-72
2022/12/12 06:59:14;;;;;;;38.75;17.38;;;0.10;99.90;;;;;;6122221;23;20024;-77
2022/12/12 07:01:40;;;;;;;32.80;16.10;;;0.00;99.90;;;;;;6121528;23;20017;-74
2022/12/12 07:04:05;;;;;;;33.08;16.83;;;0.10;99.90;;;;;;6146818;23;20347;-71
2022/12/12 07:06:31;;;;;;;27.77;15.82;;;0.10;99.90;;;;;;6149557;23;20025;-72
2022/12/12 07:08:58;;;;;;;31.90;16.63;;;0.00;99.90;;;;;;6148319;23;20021;-72
2022/12/12 07:11:25;;;;;;;28.98;16.30;;;0.00;99.90;;;;;;6147227;23;20038;-72
2022/12/12 07:13:54;;;;;;;35.25;18.02;;;0.00;99.90;;;;;;6146865;23;20024;-72
2022/12/12 07:16:20;;;;;;;28.45;15.93;;;0.10;99.90;;;;;;6146717;23;20025;-71
2022/12/12 07:18:47;;;;;;;33.13;16.88;;;0.10;99.90;;;;;;6146543;23;20029;-72
2022/12/12 07:21:15;;;;;;;30.90;16.58;;;0.10;99.90;;;;;;6146157;23;20045;-71
2022/12/12 07:23:41;;;;;;;39.30;18.23;;;0.00;99.90;;;;;;6146264;23;20096;-72
2022/12/12 07:26:19;;;;;;;37.10;18.60;;;0.00;99.90;;;;;;6123583;23;20049;-71
2022/12/12 07:28:49;;;;;;;37.00;16.92;;;0.10;99.90;;;;;;6147281;23;20219;-72
2022/12/12 07:31:18;;;;;;;29.30;15.93;;;0.00;99.90;;;;;;6121385;23;20092;-72
2022/12/12 07:33:44;;;;;;;31.23;15.98;;;0.10;99.90;;;;;;6149252;23;20351;-71
2022/12/12 07:36:11;;;;;;;28.60;15.90;;;0.00;99.90;;;;;;6147095;23;20024;-72
2022/12/12 07:38:37;;;;;;;30.63;16.92;;;0.10;99.90;;;;;;6149665;23;20025;-72
2022/12/12 07:41:08;;;;;;;30.48;16.75;;;0.10;99.90;;;;;;6147665;23;20045;-72
2022/12/12 07:43:35;;;;;;;30.50;16.55;;;0.10;99.90;;;;;;6121076;23;20022;-72
2022/12/12 07:46:01;;;;;;;28.65;16.60;;;0.10;99.90;;;;;;6148122;23;20027;-72
2022/12/12 07:48:27;;;;;;;30.73;16.38;;;0.10;99.90;;;;;;6122112;23;20048;-71
2022/12/12 07:50:53;;;;;;;37.85;18.42;;;0.10;99.90;;;;;;6148070;23;20022;-71
2022/12/12 07:53:19;;;;;;;34.28;17.23;;;0.10;99.90;;;;;;6148409;23;20025;-72
2022/12/12 07:55:45;;;;;;;42.08;19.45;;;0.10;99.90;;;;;;6148677;23;20017;-73
2022/12/12 07:58:10;;;;;;;43.65;20.48;;;0.20;99.90;;;;;;6146466;23;20021;-73
2022/12/12 08:00:36;;;;;;;42.55;19.35;;;0.20;99.90;;;;;;6148128;23;20053;-73
2022/12/12 08:03:02;;;;;;;33.35;18.10;;;0.20;99.90;;;;;;6148888;23;20328;-72
2022/12/12 08:05:28;;;;;;;34.30;17.90;;;0.20;99.90;;;;;;6152078;23;20197;-71
2022/12/12 08:07:53;;;;;;;30.42;17.33;;;0.20;99.90;;;;;;6148987;23;20021;-72
2022/12/12 08:10:19;;;;;;;108.07;23.42;;;0.10;99.90;;;;;;6149256;23;20025;-71
2022/12/12 08:12:45;;;;;;;30.42;16.60;;;0.20;99.90;;;;;;6148262;23;20018;-72
2022/12/12 08:15:15;;;;;;;32.90;17.75;;;0.10;99.90;;;;;;6122508;23;20033;-72
2022/12/12 08:17:41;;;;;;;36.40;18.88;;;0.10;99.90;;;;;;6122587;23;20097;-73
2022/12/12 08:20:08;;;;;;;34.50;18.95;;;0.10;99.90;;;;;;6150515;23;20028;-73
2022/12/12 08:22:37;;;;;;;34.42;18.10;;;0.10;99.90;;;;;;6149967;23;20028;-73
2022/12/12 08:25:03;;;;;;;32.38;17.80;;;0.10;99.90;;;;;;6150040;23;20052;-73
2022/12/12 08:27:29;;;;;;;30.15;16.30;;;0.10;99.90;;;;;;6151239;23;20392;-73
2022/12/12 08:29:54;;;;;;;31.73;17.17;;;0.10;99.90;;;;;;6149153;23;20470;-72
2022/12/12 08:32:20;;;;;;;30.85;16.48;;;0.10;99.90;;;;;;6148538;23;21396;-72
2022/12/12 08:34:48;;;;;;;32.63;18.48;;;0.10;99.90;;;;;;6146995;23;20124;-71
2022/12/12 08:37:14;;;;;;;35.92;17.70;;;0.10;99.90;;;;;;6146059;23;20036;-71
2022/12/12 08:39:40;;;;;;;35.45;18.25;;;0.10;99.90;;;;;;6142186;23;20336;-71
2022/12/12 08:42:06;;;;;;;33.60;17.70;;;0.10;99.90;;;;;;6135926;23;20072;-72
2022/12/12 08:44:32;;;;;;;36.67;19.63;;;0.10;99.90;;;;;;6118798;23;20021;-71
2022/12/12 08:46:57;;;;;;;31.45;15.93;;;0.10;99.90;;;;;;6143902;23;20017;-71
2022/12/12 08:49:23;;;;;;;41.03;20.45;;;0.10;99.90;;;;;;6146034;23;20010;-71
2022/12/12 08:51:50;;;;;;;43.65;19.10;;;0.20;99.90;;;;;;6146904;23;20100;-71
2022/12/12 08:54:19;;;;;;;34.55;17.95;;;0.20;99.90;;;;;;6141948;23;20059;-70
2022/12/12 08:56:44;;;;;;;60.20;25.05;;;0.10;99.90;;;;;;6122239;23;20024;-71
2022/12/12 08:59:10;;;;;;;46.20;21.23;;;0.10;99.90;;;;;;6144481;23;20021;-71
2022/12/12 09:01:35;;;;;;;44.40;20.88;;;0.10;99.90;;;;;;6146137;23;20461;-70
2022/12/12 09:04:01;;;;;;;47.20;21.25;;;0.20;99.90;;;;;;6146569;23;20021;-71
2022/12/12 09:06:27;;;;;;;51.22;22.67;;;0.10;99.90;;;;;;6147440;23;20282;-71
2022/12/12 09:08:55;;;;;;;35.95;18.90;;;0.10;99.90;;;;;;6119661;23;20514;-70
2022/12/12 09:11:22;;;;;;;42.17;20.60;;;0.10;99.90;;;;;;6147035;23;20030;-72
2022/12/12 09:13:47;;;;;;;45.47;20.92;;;0.10;99.90;;;;;;6146826;23;20029;-71
2022/12/12 09:16:14;;;;;;;42.55;21.50;;;0.10;99.90;;;;;;6146076;23;20020;-72
2022/12/12 09:18:40;;;;;;;46.75;22.13;;;0.10;99.90;;;;;;6149183;23;20017;-72
2022/12/12 09:21:06;;;;;;;44.40;20.83;;;0.10;99.90;;;;;;6146295;23;20055;-72
2022/12/12 09:23:32;;;;;;;39.50;21.45;;;0.10;99.90;;;;;;6146971;23;20030;-72
2022/12/12 09:25:57;;;;;;;38.47;19.75;;;0.10;99.90;;;;;;6148000;23;20032;-72
2022/12/12 09:28:24;;;;;;;38.88;20.38;;;0.10;99.90;;;;;;6145238;23;20395;-72
2022/12/12 09:30:50;;;;;;;40.15;20.90;;;0.10;99.90;;;;;;6121511;23;20056;-72
2022/12/12 09:33:17;;;;;;;42.10;20.65;;;0.10;99.90;;;;;;6120453;23;20014;-72
2022/12/12 09:35:43;;;;;;;42.00;20.88;;;0.10;99.90;;;;;;6146671;23;20017;-72
2022/12/12 09:38:09;;;;;;;43.35;21.77;;;0.20;99.90;;;;;;6145967;23;20041;-72
2022/12/12 09:40:51;;;;;;;41.28;21.83;;;0.10;99.90;;;;;;6116270;23;20036;-71
2022/12/12 09:43:21;;;;;;;39.88;20.70;;;0.10;99.90;;;;;;6114049;23;20116;-71
2022/12/12 09:45:47;;;;;;;46.42;22.15;;;0.20;99.90;;;;;;6117884;23;20029;-72
2022/12/12 09:48:37;;;;;;;47.55;22.90;;;0.10;99.90;;;;;;6117814;23;20022;-72
2022/12/12 09:51:03;;;;;;;42.55;21.63;;;0.10;99.90;;;;;;6115137;23;20034;-72
2022/12/12 09:53:29;;;;;;;44.80;21.42;;;0.10;99.90;;;;;;6117552;23;20021;-72
2022/12/12 09:55:58;;;;;;;40.90;20.15;;;0.10;99.90;;;;;;6114887;23;20088;-72
2022/12/12 09:58:40;;;;;;;41.08;20.50;;;0.20;99.90;;;;;;6114519;23;20412;-72
2022/12/12 10:01:48;;;;;;;42.47;22.23;;;0.20;99.90;;;;;;6115724;23;20028;-72
2022/12/12 10:04:41;;;;;;;42.03;19.92;;;0.20;99.90;;;;;;6115358;23;20050;-71
2022/12/12 10:07:21;;;;;;;45.90;21.70;;;0.20;99.90;;;;;;6114912;23;20052;-71
2022/12/12 10:10:17;;;;;;;45.85;22.55;;;0.30;99.90;;;;;;6118914;23;20029;-72
2022/12/12 10:12:44;;;;;;;44.60;22.23;;;0.30;99.90;;;;;;6118401;23;20022;-71
2022/12/12 10:15:27;;;;;;;44.47;21.48;;;0.30;99.90;;;;;;6111841;23;20418;-72
2022/12/12 10:17:55;;;;;;;52.33;24.73;;;0.30;99.90;;;;;;6116378;23;20398;-71
2022/12/12 10:20:34;;;;;;;46.13;23.88;;;0.40;99.90;;;;;;6117646;23;20037;-71
2022/12/12 10:23:12;;;;;;;44.45;21.35;;;0.40;99.90;;;;;;6118769;23;20014;-71
2022/12/12 10:25:42;;;;;;;45.00;23.63;;;0.50;99.90;;;;;;6114213;23;20022;-72
2022/12/12 10:33:40;;;;;;;47.25;25.08;;;0.60;99.90;;;;;;6078530;23;20641;-72
2022/12/12 10:36:18;;;;;;;50.17;23.38;;;0.60;99.90;;;;;;6122771;23;20614;-72
2022/12/12 10:39:06;;;;;;;42.28;23.55;;;0.60;99.90;;;;;;6149250;23;20014;-72
2022/12/12 10:42:01;;;;;;;42.08;22.08;;;0.50;99.90;;;;;;6122372;23;20025;-73
2022/12/12 10:44:42;;;;;;;104.05;27.55;;;0.60;99.90;;;;;;6119623;23;20392;-73
2022/12/12 10:47:11;;;;;;;44.22;23.15;;;0.60;99.90;;;;;;6147282;23;20022;-72
2022/12/12 10:49:37;;;;;;;42.33;22.55;;;0.70;99.90;;;;;;6149178;23;20025;-72
2022/12/12 10:52:10;;;;;;;40.42;21.85;;;0.70;99.90;;;;;;6123141;23;20025;-72
2022/12/12 10:54:43;;;;;;;43.83;22.70;;;0.70;99.90;;;;;;6118796;23;20032;-72
2022/12/12 10:57:18;;;;;;;41.83;22.13;;;0.80;99.90;;;;;;6146336;23;20025;-71
2022/12/12 10:59:48;;;;;;;40.45;21.45;;;0.90;99.90;;;;;;6147476;23;20521;-72
2022/12/12 11:02:29;;;;;;;40.05;20.40;;;1.00;99.90;;;;;;6122136;23;20014;-72
2022/12/12 11:05:08;;;;;;;39.60;21.42;;;0.90;99.90;;;;;;6148898;23;20440;-72
2022/12/12 11:08:02;;;;;;;38.05;21.90;;;1.10;99.90;;;;;;6121336;23;20870;-72
2022/12/12 11:10:34;;;;;;;38.47;20.67;;;1.00;99.90;;;;;;6121046;23;20037;-72
2022/12/12 11:13:15;;;;;;;39.63;21.55;;;1.00;99.90;;;;;;6121186;23;20017;-72
2022/12/12 11:16:00;;;;;;;44.50;20.95;;;1.10;99.90;;;;;;6146002;23;20013;-73
2022/12/12 11:18:27;;;;;;;41.08;23.10;;;1.00;99.90;;;;;;6146518;23;20021;-72
2022/12/12 11:20:55;;;;;;;41.58;20.92;;;1.00;99.90;;;;;;6146285;23;20025;-73
2022/12/12 11:23:26;;;;;;;40.10;20.85;;;0.90;99.90;;;;;;6145763;23;20080;-73
2022/12/12 11:26:02;;;;;;;40.72;22.73;;;1.00;99.90;;;;;;6146725;23;20388;-73
2022/12/12 11:28:33;;;;;;;39.15;20.95;;;1.00;99.90;;;;;;6119337;23;20056;-73
2022/12/12 11:31:02;;;;;;;47.55;25.13;;;1.00;99.90;;;;;;6119612;23;20025;-73
2022/12/12 11:33:36;;;;;;;42.20;22.60;;;1.00;99.90;;;;;;6119939;23;20041;-73
2022/12/12 11:36:05;;;;;;;40.08;21.05;;;1.00;99.90;;;;;;6145123;23;20622;-73
2022/12/12 11:38:38;;;;;;;43.95;22.80;;;1.00;99.90;;;;;;6119426;23;20018;-73
2022/12/12 11:41:08;;;;;;;;;;;1.00;99.90;;;;;;6148283;23;20032;-73
2022/12/12 11:43:36;;;;;;;45.40;22.25;;;1.10;99.90;;;;;;6148144;23;19920;-73
2022/12/12 11:46:15;;;;;;;44.50;22.83;;;1.10;99.90;;;;;;6148215;23;20072;-72
2022/12/12 11:49:02;;;;;;;43.97;22.02;;;1.00;99.90;;;;;;6122702;23;20018;-74
2022/12/12 11:51:36;;;;;;;38.53;20.60;;;1.20;99.90;;;;;;6122455;23;20013;-73
2022/12/12 11:54:14;;;;;;;39.85;21.88;;;1.20;99.90;;;;;;6122533;23;20021;-73
2022/12/12 11:57:02;;;;;;;44.03;21.80;;;1.10;99.90;;;;;;6123540;23;20093;-73
2022/12/12 12:00:02;;;;;;;37.25;20.23;;;1.10;99.90;;;;;;6149376;23;20021;-74
2022/12/12 12:02:49;;;;;;;37.58;20.55;;;1.20;99.90;;;;;;6147951;23;20021;-73
2022/12/12 12:05:36;;;;;;;37.03;19.38;;;1.10;99.90;;;;;;6148680;23;20022;-73
2022/12/12 12:08:13;;;;;;;40.25;19.00;;;1.20;99.90;;;;;;6121534;23;20398;-73
2022/12/12 12:11:03;;;;;;;41.45;20.48;;;1.20;99.90;;;;;;6122212;23;20021;-73
2022/12/12 12:13:48;;;;;;;38.90;19.65;;;1.20;99.90;;;;;;6122954;23;20021;-73
2022/12/12 12:16:14;;;;;;;42.40;20.52;;;1.20;99.90;;;;;;6123768;23;20022;-72
2022/12/12 12:18:42;;;;;;;35.75;20.00;;;1.20;99.90;;;;;;6124227;23;20595;-73
2022/12/12 12:21:22;;;;;;;35.00;19.15;;;1.20;99.90;;;;;;6149851;23;20014;-73
2022/12/12 12:24:17;;;;;;;39.35;21.40;;;1.30;99.90;;;;;;6123703;23;20056;-73
2022/12/12 12:26:48;;;;;;;34.88;19.27;;;1.30;99.90;;;;;;6123836;23;20057;-73
2022/12/12 12:29:36;;;;;;;42.15;22.00;;;1.40;99.90;;;;;;6149265;23;20473;-74
2022/12/12 12:32:29;;;;;;;35.17;19.85;;;1.40;99.90;;;;;;6122963;23;20017;-74
2022/12/12 12:35:21;;;;;;;34.67;19.17;;;1.40;99.90;;;;;;6124281;23;20029;-74
2022/12/12 12:37:57;;;;;;;33.92;18.88;;;1.40;99.90;;;;;;6147749;23;20488;-74
2022/12/12 12:40:47;;;;;;;32.55;17.77;;;1.50;99.90;;;;;;6149014;23;20551;-74
2022/12/12 12:43:35;;;;;;;30.15;17.73;;;1.50;99.90;;;;;;6149685;23;20013;-74
2022/12/12 12:46:17;;;;;;;32.63;17.98;;;1.50;99.90;;;;;;6149908;23;20474;-73
2022/12/12 12:48:51;;;;;;;35.85;18.58;;;1.50;99.90;;;;;;6149982;23;20111;-73
2022/12/12 12:51:38;;;;;;;32.65;18.58;;;1.50;99.90;;;;;;6149476;23;20021;-73
2022/12/12 12:54:22;;;;;;;30.27;16.98;;;1.50;99.90;;;;;;6148146;23;20021;-74
2022/12/12 12:57:13;;;;;;;41.67;23.40;;;1.50;99.90;;;;;;6123384;23;20231;-73
2022/12/12 12:59:43;;;;;;;31.55;17.75;;;1.50;99.90;;;;;;6146895;23;20028;-73
2022/12/12 13:02:40;;;;;;;28.65;16.30;;;1.50;99.90;;;;;;6122173;23;20024;-72
2022/12/12 13:05:33;;;;;;;29.98;16.88;;;1.40;99.90;;;;;;6123587;23;20025;-71
2022/12/12 13:08:18;;;;;;;30.70;17.27;;;1.40;99.90;;;;;;6124010;23;20010;-72
2022/12/12 13:10:48;;;;;;;28.58;16.40;;;1.40;99.90;;;;;;6148653;23;20029;-72
2022/12/12 13:13:22;;;;;;;29.02;16.45;;;1.40;99.90;;;;;;6149711;23;20021;-72
2022/12/12 13:16:32;;;;;;;28.83;15.82;;;1.50;99.90;;;;;;6149363;23;20021;-70
2022/12/12 13:19:09;;;;;;;29.45;15.80;;;1.40;99.90;;;;;;6005350;23;20607;-72
2022/12/12 13:21:45;;;;;;;24.75;14.23;;;1.40;99.90;;;;;;6028802;23;20246;-72